< < Back
Terminal Aerodrome Forecast


Current Version              Previous Versions:   1  2  3  4  5  6  7  8  9  

Terminal Aerodrome Forecast

345
FTUS44 KBMX 010520
TAFMGM
TAF
KMGM 010520Z 0106/0206 03005KT P6SM SKC
     FM011500 03009KT P6SM SCT250
     FM020100 05003KT P6SM SKC=

Latest METAR

528
SAUS80 KWBC 020600 RRC
MTRMGM
METAR KMGM 020553Z 10004KT 10SM CLR 26/22 A2990 RMK AO2 SLP122 T02560222
10333 20256 403560222 50001


USA.gov is the U.S. government's official web portal to all federal, state and local government web resources and services.